Hannover

Airport
ICAO code: 
EDDV
Summary
ICAO Region: 
EUR
Territory: 
Location: 
Hannover, Germany,
Elevation: 
183 ft
Coordinates: 
Aerial View: 
52° 27' 39.966" N, 9° 41' 6.286" E
Metar
Observation
EDDV 270220Z 15008KT 110V190 9999 -RA FEW015 BKN030 03/01 Q0986
Station
Hannover
Date/Time
2021-11-27 02:20:00
Wind direction
150°
Wind speed
08 kts
Lowest cloud amount
few clouds
Temperature
3°C
Dew point
1°C
Humidity
86%
QNH
986 hPa
Weather condition
light rain

Description

International airport serving Hannover, Germany.

Climatology

Temperate Marine climate/Oceanic climate (Köppen climate classification Cfb) - Moderately cool summer and comparatively warm winter.

Runways

Designator Length Width Surface Rops
09C/27C 780 23 ASP Yes/Yes
09R/27L 2340 45 CON Yes/Yes
09L/27R 3800 45 CON Yes/Yes
Airport map: 
Aerial View: 

Accidents and Serious Incidents at or in the vicinity of EDDV

SKYbrary Partners:

Safety knowledge contributed by: